sensor_id;sensor_type;location;lat;lon;timestamp;temperature;humidity
23717;DHT22;22094;52.130;5.598;2024-02-23T00:59:19;4.80;1.00
23717;DHT22;22094;52.130;5.598;2024-02-23T01:22:42;5.10;70.30
23717;DHT22;22094;52.130;5.598;2024-02-23T01:25:12;5.00;99.90
23717;DHT22;22094;52.130;5.598;2024-02-23T01:27:38;4.90;99.90
23717;DHT22;22094;52.130;5.598;2024-02-23T01:30:13;5.60;99.90
23717;DHT22;22094;52.130;5.598;2024-02-23T01:32:47;4.40;1.00
23717;DHT22;22094;52.130;5.598;2024-02-23T01:35:14;3.60;99.90
23717;DHT22;22094;52.130;5.598;2024-02-23T02:37:14;5.30;1.00
23717;DHT22;22094;52.130;5.598;2024-02-23T02:39:39;5.20;1.00
23717;DHT22;22094;52.130;5.598;2024-02-23T02:42:25;4.50;1.00
23717;DHT22;22094;52.130;5.598;2024-02-23T02:45:03;4.40;1.00
23717;DHT22;22094;52.130;5.598;2024-02-23T02:47:38;4.20;1.00
23717;DHT22;22094;52.130;5.598;2024-02-23T02:50:30;4.80;1.00
23717;DHT22;22094;52.130;5.598;2024-02-23T02:53:41;3.70;1.00
23717;DHT22;22094;52.130;5.598;2024-02-23T02:56:10;4.50;1.00
23717;DHT22;22094;52.130;5.598;2024-02-23T02:58:41;4.80;1.00
23717;DHT22;22094;52.130;5.598;2024-02-23T03:01:12;4.50;1.00
23717;DHT22;22094;52.130;5.598;2024-02-23T03:03:38;4.50;1.00
23717;DHT22;22094;52.130;5.598;2024-02-23T03:06:10;5.00;1.00
23717;DHT22;22094;52.130;5.598;2024-02-23T03:08:42;4.60;1.00
23717;DHT22;22094;52.130;5.598;2024-02-23T03:11:13;3.90;1.00
23717;DHT22;22094;52.130;5.598;2024-02-23T03:13:39;4.30;1.00
23717;DHT22;22094;52.130;5.598;2024-02-23T03:16:20;4.90;1.00
23717;DHT22;22094;52.130;5.598;2024-02-23T03:18:53;3.80;1.00
23717;DHT22;22094;52.130;5.598;2024-02-23T03:21:22;5.00;1.00
23717;DHT22;22094;52.130;5.598;2024-02-23T03:23:54;4.40;1.00
23717;DHT22;22094;52.130;5.598;2024-02-23T03:26:28;4.40;1.00
23717;DHT22;22094;52.130;5.598;2024-02-23T03:29:01;4.30;1.00
23717;DHT22;22094;52.130;5.598;2024-02-23T03:31:30;4.50;1.00
23717;DHT22;22094;52.130;5.598;2024-02-23T03:34:09;4.50;1.00
23717;DHT22;22094;52.130;5.598;2024-02-23T03:36:38;5.10;99.90
23717;DHT22;22094;52.130;5.598;2024-02-23T03:39:04;5.00;99.90
23717;DHT22;22094;52.130;5.598;2024-02-23T03:41:50;3.80;99.90
23717;DHT22;22094;52.130;5.598;2024-02-23T03:44:20;4.50;1.00
23717;DHT22;22094;52.130;5.598;2024-02-23T03:46:49;5.00;1.00
23717;DHT22;22094;52.130;5.598;2024-02-23T03:49:20;4.40;1.00
23717;DHT22;22094;52.130;5.598;2024-02-23T03:51:47;3.80;1.00
23717;DHT22;22094;52.130;5.598;2024-02-23T03:54:23;4.50;1.00
23717;DHT22;22094;52.130;5.598;2024-02-23T03:56:49;5.50;99.90
23717;DHT22;22094;52.130;5.598;2024-02-23T03:59:15;4.50;1.00
23717;DHT22;22094;52.130;5.598;2024-02-23T04:01:40;5.00;1.00
23717;DHT22;22094;52.130;5.598;2024-02-23T04:04:07;4.50;99.90
23717;DHT22;22094;52.130;5.598;2024-02-23T04:06:38;4.60;1.00
23717;DHT22;22094;52.130;5.598;2024-02-23T04:09:12;5.20;1.00
23717;DHT22;22094;52.130;5.598;2024-02-23T04:11:48;4.70;1.00
23717;DHT22;22094;52.130;5.598;2024-02-23T04:14:19;4.00;99.90
23717;DHT22;22094;52.130;5.598;2024-02-23T04:16:45;4.30;1.00
23717;DHT22;22094;52.130;5.598;2024-02-23T04:19:16;4.30;1.00
23717;DHT22;22094;52.130;5.598;2024-02-23T04:21:47;3.90;1.00
23717;DHT22;22094;52.130;5.598;2024-02-23T04:24:18;4.30;1.00
23717;DHT22;22094;52.130;5.598;2024-02-23T04:26:49;4.90;1.00
23717;DHT22;22094;52.130;5.598;2024-02-23T04:29:21;5.20;1.00
23717;DHT22;22094;52.130;5.598;2024-02-23T04:31:49;3.90;1.00
23717;DHT22;22094;52.130;5.598;2024-02-23T04:34:25;4.30;1.00
23717;DHT22;22094;52.130;5.598;2024-02-23T04:36:56;5.20;1.00
23717;DHT22;22094;52.130;5.598;2024-02-23T04:39:25;4.30;1.00
23717;DHT22;22094;52.130;5.598;2024-02-23T04:42:02;4.50;1.00
23717;DHT22;22094;52.130;5.598;2024-02-23T04:45:04;3.40;1.00
23717;DHT22;22094;52.130;5.598;2024-02-23T04:47:33;5.20;1.00
23717;DHT22;22094;52.130;5.598;2024-02-23T04:50:22;4.70;1.00
23717;DHT22;22094;52.130;5.598;2024-02-23T04:52:50;4.20;1.00
23717;DHT22;22094;52.130;5.598;2024-02-23T04:55:16;4.30;1.00
23717;DHT22;22094;52.130;5.598;2024-02-23T04:57:45;4.80;1.00
23717;DHT22;22094;52.130;5.598;2024-02-23T05:00:11;4.40;1.00
23717;DHT22;22094;52.130;5.598;2024-02-23T05:06:00;4.40;1.00
23717;DHT22;22094;52.130;5.598;2024-02-23T05:08:26;4.50;1.00
23717;DHT22;22094;52.130;5.598;2024-02-23T05:10:53;4.50;99.90
23717;DHT22;22094;52.130;5.598;2024-02-23T05:13:24;4.60;99.90
23717;DHT22;22094;52.130;5.598;2024-02-23T05:18:34;4.50;99.90
23717;DHT22;22094;52.130;5.598;2024-02-23T05:21:00;5.00;99.90
23717;DHT22;22094;52.130;5.598;2024-02-23T05:23:29;5.60;99.90
23717;DHT22;22094;52.130;5.598;2024-02-23T05:26:04;5.20;99.90
23717;DHT22;22094;52.130;5.598;2024-02-23T05:28:30;4.70;99.90
23717;DHT22;22094;52.130;5.598;2024-02-23T05:31:01;4.90;99.90
23717;DHT22;22094;52.130;5.598;2024-02-23T05:33:33;4.70;1.00
23717;DHT22;22094;52.130;5.598;2024-02-23T05:36:04;4.80;1.00
23717;DHT22;22094;52.130;5.598;2024-02-23T05:38:55;4.20;1.00
23717;DHT22;22094;52.130;5.598;2024-02-23T05:42:02;4.80;1.00
23717;DHT22;22094;52.130;5.598;2024-02-23T05:44:36;4.90;99.90
23717;DHT22;22094;52.130;5.598;2024-02-23T05:47:08;5.40;1.00
23717;DHT22;22094;52.130;5.598;2024-02-23T05:49:41;4.90;1.00
23717;DHT22;22094;52.130;5.598;2024-02-23T05:52:14;4.90;1.00
23717;DHT22;22094;52.130;5.598;2024-02-23T05:54:40;6.00;99.90
23717;DHT22;22094;52.130;5.598;2024-02-23T06:33:08;5.10;99.90
23717;DHT22;22094;52.130;5.598;2024-02-23T06:35:46;5.70;1.00
23717;DHT22;22094;52.130;5.598;2024-02-23T06:41:16;5.00;99.90
23717;DHT22;22094;52.130;5.598;2024-02-23T06:43:54;5.00;1.00
23717;DHT22;22094;52.130;5.598;2024-02-23T06:46:20;5.20;28.60
23717;DHT22;22094;52.130;5.598;2024-02-23T06:48:46;5.70;99.90
23717;DHT22;22094;52.130;5.598;2024-02-23T09:09:52;6.40;1.00
23717;DHT22;22094;52.130;5.598;2024-02-23T09:12:50;6.40;1.00
23717;DHT22;22094;52.130;5.598;2024-02-23T09:15:16;6.40;1.00
23717;DHT22;22094;52.130;5.598;2024-02-23T09:17:41;7.30;1.00
23717;DHT22;22094;52.130;5.598;2024-02-23T09:20:07;6.40;1.00
23717;DHT22;22094;52.130;5.598;2024-02-23T09:24:59;9.20;99.90
23717;DHT22;22094;52.130;5.598;2024-02-23T09:27:25;6.70;1.00
23717;DHT22;22094;52.130;5.598;2024-02-23T09:29:50;6.50;1.00
23717;DHT22;22094;52.130;5.598;2024-02-23T09:32:16;6.40;1.00
23717;DHT22;22094;52.130;5.598;2024-02-23T09:34:42;7.70;1.00
23717;DHT22;22094;52.130;5.598;2024-02-23T09:37:08;7.30;1.00
23717;DHT22;22094;52.130;5.598;2024-02-23T09:39:33;6.20;1.00
23717;DHT22;22094;52.130;5.598;2024-02-23T09:42:01;7.10;1.00
23717;DHT22;22094;52.130;5.598;2024-02-23T09:44:32;6.70;1.00
23717;DHT22;22094;52.130;5.598;2024-02-23T09:47:02;6.40;1.00
23717;DHT22;22094;52.130;5.598;2024-02-23T09:49:38;6.60;1.00
23717;DHT22;22094;52.130;5.598;2024-02-23T09:52:07;6.60;26.20
23717;DHT22;22094;52.130;5.598;2024-02-23T09:54:33;6.70;99.90
23717;DHT22;22094;52.130;5.598;2024-02-23T09:57:00;6.90;1.00
23717;DHT22;22094;52.130;5.598;2024-02-23T09:59:26;6.60;1.00
23717;DHT22;22094;52.130;5.598;2024-02-23T10:01:53;6.60;1.00
23717;DHT22;22094;52.130;5.598;2024-02-23T10:04:19;6.60;99.90
23717;DHT22;22094;52.130;5.598;2024-02-23T10:06:45;7.40;99.90
23717;DHT22;22094;52.130;5.598;2024-02-23T10:09:10;7.20;1.00
23717;DHT22;22094;52.130;5.598;2024-02-23T10:11:38;6.30;99.90
23717;DHT22;22094;52.130;5.598;2024-02-23T10:14:03;6.30;35.10
23717;DHT22;22094;52.130;5.598;2024-02-23T10:16:30;6.90;1.00
23717;DHT22;22094;52.130;5.598;2024-02-23T10:18:57;6.50;99.90
23717;DHT22;22094;52.130;5.598;2024-02-23T10:21:23;6.50;99.90
23717;DHT22;22094;52.130;5.598;2024-02-23T10:26:17;6.70;1.00
23717;DHT22;22094;52.130;5.598;2024-02-23T10:28:45;7.00;1.00
23717;DHT22;22094;52.130;5.598;2024-02-23T10:33:38;7.00;99.90
23717;DHT22;22094;52.130;5.598;2024-02-23T10:36:05;7.30;99.90
23717;DHT22;22094;52.130;5.598;2024-02-23T10:38:32;7.30;1.00
23717;DHT22;22094;52.130;5.598;2024-02-23T10:40:58;7.10;1.00
23717;DHT22;22094;52.130;5.598;2024-02-23T10:43:32;6.90;1.00
23717;DHT22;22094;52.130;5.598;2024-02-23T10:45:59;7.10;1.00
23717;DHT22;22094;52.130;5.598;2024-02-23T10:48:28;7.20;99.90
23717;DHT22;22094;52.130;5.598;2024-02-23T10:50:56;7.80;1.00
23717;DHT22;22094;52.130;5.598;2024-02-23T10:53:24;7.00;99.90
23717;DHT22;22094;52.130;5.598;2024-02-23T10:55:55;6.80;1.00
23717;DHT22;22094;52.130;5.598;2024-02-23T10:58:22;7.60;99.90
23717;DHT22;22094;52.130;5.598;2024-02-23T11:00:48;7.30;1.00
23717;DHT22;22094;52.130;5.598;2024-02-23T11:03:15;7.30;1.00
23717;DHT22;22094;52.130;5.598;2024-02-23T11:05:41;6.60;99.90
23717;DHT22;22094;52.130;5.598;2024-02-23T11:08:06;7.20;99.90
23717;DHT22;22094;52.130;5.598;2024-02-23T11:10:42;4.20;99.90
23717;DHT22;22094;52.130;5.598;2024-02-23T11:13:08;6.80;99.90
23717;DHT22;22094;52.130;5.598;2024-02-23T11:15:34;6.90;99.90
23717;DHT22;22094;52.130;5.598;2024-02-23T11:18:30;7.00;99.90
23717;DHT22;22094;52.130;5.598;2024-02-23T11:21:03;7.40;99.90
23717;DHT22;22094;52.130;5.598;2024-02-23T11:23:42;7.60;99.90
23717;DHT22;22094;52.130;5.598;2024-02-23T11:26:12;7.50;99.90
23717;DHT22;22094;52.130;5.598;2024-02-23T11:28:51;9.10;1.00
23717;DHT22;22094;52.130;5.598;2024-02-23T11:31:24;7.70;99.90
23717;DHT22;22094;52.130;5.598;2024-02-23T11:33:56;10.20;99.90
23717;DHT22;22094;52.130;5.598;2024-02-23T11:36:30;5.70;1.00
23717;DHT22;22094;52.130;5.598;2024-02-23T11:38:58;8.10;1.00
23717;DHT22;22094;52.130;5.598;2024-02-23T11:41:25;9.40;1.00
23717;DHT22;22094;52.130;5.598;2024-02-23T11:43:51;8.20;1.00
23717;DHT22;22094;52.130;5.598;2024-02-23T11:46:18;8.20;1.00
23717;DHT22;22094;52.130;5.598;2024-02-23T12:01:02;7.70;1.00
23717;DHT22;22094;52.130;5.598;2024-02-23T12:03:31;5.80;1.00
23717;DHT22;22094;52.130;5.598;2024-02-23T12:05:57;8.40;99.90
23717;DHT22;22094;52.130;5.598;2024-02-23T12:08:27;8.50;1.00
23717;DHT22;22094;52.130;5.598;2024-02-23T12:10:57;8.40;1.00
23717;DHT22;22094;52.130;5.598;2024-02-23T12:13:26;8.50;99.90
23717;DHT22;22094;52.130;5.598;2024-02-23T12:15:53;8.30;1.00
23717;DHT22;22094;52.130;5.598;2024-02-23T12:18:21;8.20;1.00
23717;DHT22;22094;52.130;5.598;2024-02-23T12:25:56;8.20;1.00
23717;DHT22;22094;52.130;5.598;2024-02-23T12:28:22;8.30;1.00
23717;DHT22;22094;52.130;5.598;2024-02-23T12:31:01;7.30;1.00
23717;DHT22;22094;52.130;5.598;2024-02-23T12:33:38;8.40;1.00
23717;DHT22;22094;52.130;5.598;2024-02-23T12:36:11;8.30;1.00
23717;DHT22;22094;52.130;5.598;2024-02-23T12:41:04;8.20;1.00
23717;DHT22;22094;52.130;5.598;2024-02-23T12:43:30;5.20;1.00
23717;DHT22;22094;52.130;5.598;2024-02-23T12:48:22;8.20;99.90
23717;DHT22;22094;52.130;5.598;2024-02-23T12:50:48;8.10;1.00
23717;DHT22;22094;52.130;5.598;2024-02-23T12:53:34;8.30;1.00
23717;DHT22;22094;52.130;5.598;2024-02-23T12:58:27;8.70;99.90
23717;DHT22;22094;52.130;5.598;2024-02-23T13:03:19;10.50;99.90
23717;DHT22;22094;52.130;5.598;2024-02-23T13:05:45;8.20;99.90
23717;DHT22;22094;52.130;5.598;2024-02-23T13:13:03;8.60;99.90
23717;DHT22;22094;52.130;5.598;2024-02-23T13:15:28;5.50;99.90
23717;DHT22;22094;52.130;5.598;2024-02-23T13:22:49;8.90;99.90
23717;DHT22;22094;52.130;5.598;2024-02-23T13:25:15;9.30;99.90
23717;DHT22;22094;52.130;5.598;2024-02-23T13:30:07;8.80;99.90
23717;DHT22;22094;52.130;5.598;2024-02-23T13:37:29;8.90;99.90
23717;DHT22;22094;52.130;5.598;2024-02-23T13:39:55;8.50;99.90
23717;DHT22;22094;52.130;5.598;2024-02-23T13:47:12;8.70;99.90
23717;DHT22;22094;52.130;5.598;2024-02-23T13:49:38;8.50;99.90
23717;DHT22;22094;52.130;5.598;2024-02-23T13:59:22;11.50;99.90
23717;DHT22;22094;52.130;5.598;2024-02-23T14:01:47;8.20;99.90
23717;DHT22;22094;52.130;5.598;2024-02-23T14:04:13;8.40;99.90
23717;DHT22;22094;52.130;5.598;2024-02-23T14:06:39;8.60;99.90
23717;DHT22;22094;52.130;5.598;2024-02-23T14:09:04;8.20;99.90
23717;DHT22;22094;52.130;5.598;2024-02-23T14:13:57;8.50;99.90
23717;DHT22;22094;52.130;5.598;2024-02-23T14:18:49;8.50;99.90
23717;DHT22;22094;52.130;5.598;2024-02-23T14:21:15;8.50;99.90
23717;DHT22;22094;52.130;5.598;2024-02-23T14:23:42;9.20;99.90
23717;DHT22;22094;52.130;5.598;2024-02-23T14:26:08;8.40;99.90
23717;DHT22;22094;52.130;5.598;2024-02-23T14:31:00;8.50;99.90
23717;DHT22;22094;52.130;5.598;2024-02-23T14:35:51;8.50;99.90
23717;DHT22;22094;52.130;5.598;2024-02-23T14:40:43;9.30;99.90
23717;DHT22;22094;52.130;5.598;2024-02-23T14:45:38;9.60;1.00
23717;DHT22;22094;52.130;5.598;2024-02-23T14:50:38;9.70;1.00
23717;DHT22;22094;52.130;5.598;2024-02-23T14:53:05;8.80;1.00
23717;DHT22;22094;52.130;5.598;2024-02-23T14:55:31;9.00;1.00
23717;DHT22;22094;52.130;5.598;2024-02-23T15:03:04;9.50;1.00
23717;DHT22;22094;52.130;5.598;2024-02-23T15:05:33;8.80;1.00
23717;DHT22;22094;52.130;5.598;2024-02-23T15:08:05;11.80;1.00
23717;DHT22;22094;52.130;5.598;2024-02-23T15:10:33;9.50;1.00
23717;DHT22;22094;52.130;5.598;2024-02-23T15:13:01;9.60;1.00
23717;DHT22;22094;52.130;5.598;2024-02-23T15:15:27;9.90;1.00
23717;DHT22;22094;52.130;5.598;2024-02-23T15:20:22;9.60;1.00
23717;DHT22;22094;52.130;5.598;2024-02-23T15:25:23;10.40;1.00
23717;DHT22;22094;52.130;5.598;2024-02-23T15:27:52;9.10;1.00
23717;DHT22;22094;52.130;5.598;2024-02-23T15:32:44;8.90;1.00
23717;DHT22;22094;52.130;5.598;2024-02-23T15:37:36;8.60;1.00
23717;DHT22;22094;52.130;5.598;2024-02-23T15:40:02;8.60;1.00
23717;DHT22;22094;52.130;5.598;2024-02-23T15:42:29;8.60;1.00
23717;DHT22;22094;52.130;5.598;2024-02-23T15:44:55;10.70;99.90
23717;DHT22;22094;52.130;5.598;2024-02-23T15:47:21;8.50;99.90
23717;DHT22;22094;52.130;5.598;2024-02-23T15:49:47;9.10;1.00
23717;DHT22;22094;52.130;5.598;2024-02-23T15:52:12;8.20;99.90
23717;DHT22;22094;52.130;5.598;2024-02-23T15:54:38;8.10;1.00
23717;DHT22;22094;52.130;5.598;2024-02-23T15:57:04;8.10;99.90
23717;DHT22;22094;52.130;5.598;2024-02-23T15:59:29;8.00;99.90
23717;DHT22;22094;52.130;5.598;2024-02-23T16:01:56;8.60;1.00
23717;DHT22;22094;52.130;5.598;2024-02-23T16:04:22;8.00;1.00
23717;DHT22;22094;52.130;5.598;2024-02-23T16:06:48;7.80;1.00
23717;DHT22;22094;52.130;5.598;2024-02-23T16:09:13;7.80;99.90
23717;DHT22;22094;52.130;5.598;2024-02-23T16:11:45;8.10;15.90
23717;DHT22;22094;52.130;5.598;2024-02-23T16:14:14;8.40;99.90
23717;DHT22;22094;52.130;5.598;2024-02-23T16:16:40;8.20;99.90
23717;DHT22;22094;52.130;5.598;2024-02-23T16:19:09;7.60;1.00
23717;DHT22;22094;52.130;5.598;2024-02-23T16:21:36;7.60;1.00
23717;DHT22;22094;52.130;5.598;2024-02-23T16:24:04;8.20;1.00
23717;DHT22;22094;52.130;5.598;2024-02-23T16:26:31;7.50;3.60
23717;DHT22;22094;52.130;5.598;2024-02-23T16:29:00;7.40;99.90
23717;DHT22;22094;52.130;5.598;2024-02-23T16:31:26;7.40;1.00
23717;DHT22;22094;52.130;5.598;2024-02-23T16:33:51;8.60;99.90
23717;DHT22;22094;52.130;5.598;2024-02-23T16:36:17;7.40;1.00
23717;DHT22;22094;52.130;5.598;2024-02-23T16:38:43;8.40;1.00
23717;DHT22;22094;52.130;5.598;2024-02-23T16:41:09;7.30;1.00
23717;DHT22;22094;52.130;5.598;2024-02-23T16:43:34;8.00;21.80
23717;DHT22;22094;52.130;5.598;2024-02-23T16:46:00;7.20;99.90
23717;DHT22;22094;52.130;5.598;2024-02-23T16:48:25;7.10;99.90
23717;DHT22;22094;52.130;5.598;2024-02-23T16:50:51;7.10;99.90
23717;DHT22;22094;52.130;5.598;2024-02-23T16:53:17;6.60;99.90
23717;DHT22;22094;52.130;5.598;2024-02-23T16:55:42;7.10;99.90
23717;DHT22;22094;52.130;5.598;2024-02-23T16:58:09;7.00;1.00
23717;DHT22;22094;52.130;5.598;2024-02-23T17:00:35;7.50;1.00
23717;DHT22;22094;52.130;5.598;2024-02-23T17:03:00;7.70;1.00
23717;DHT22;22094;52.130;5.598;2024-02-23T17:05:26;7.40;1.00
23717;DHT22;22094;52.130;5.598;2024-02-23T17:07:52;7.00;1.00
23717;DHT22;22094;52.130;5.598;2024-02-23T17:10:18;6.80;67.70
23717;DHT22;22094;52.130;5.598;2024-02-23T17:12:44;7.70;1.00
23717;DHT22;22094;52.130;5.598;2024-02-23T17:15:18;7.40;1.00
23717;DHT22;22094;52.130;5.598;2024-02-23T17:17:43;6.90;1.00
23717;DHT22;22094;52.130;5.598;2024-02-23T17:20:09;6.90;1.00
23717;DHT22;22094;52.130;5.598;2024-02-23T17:22:35;6.90;1.00
23717;DHT22;22094;52.130;5.598;2024-02-23T17:25:01;6.30;1.00
23717;DHT22;22094;52.130;5.598;2024-02-23T17:27:27;7.30;91.00
23717;DHT22;22094;52.130;5.598;2024-02-23T17:29:53;6.60;95.20
23717;DHT22;22094;52.130;5.598;2024-02-23T17:32:19;7.50;99.90
23717;DHT22;22094;52.130;5.598;2024-02-23T17:34:45;7.00;99.90
23717;DHT22;22094;52.130;5.598;2024-02-23T17:37:10;7.30;1.00
23717;DHT22;22094;52.130;5.598;2024-02-23T17:39:36;6.40;99.90
23717;DHT22;22094;52.130;5.598;2024-02-23T17:42:03;7.00;99.90
23717;DHT22;22094;52.130;5.598;2024-02-23T17:44:29;6.20;1.00
23717;DHT22;22094;52.130;5.598;2024-02-23T17:46:55;6.20;99.90
23717;DHT22;22094;52.130;5.598;2024-02-23T17:49:21;6.90;1.00
23717;DHT22;22094;52.130;5.598;2024-02-23T17:51:46;6.50;99.90
23717;DHT22;22094;52.130;5.598;2024-02-23T17:54:12;6.80;99.90
23717;DHT22;22094;52.130;5.598;2024-02-23T17:56:37;5.90;1.00
23717;DHT22;22094;52.130;5.598;2024-02-23T17:59:03;6.80;1.00
23717;DHT22;22094;52.130;5.598;2024-02-23T18:01:29;5.60;99.90
23717;DHT22;22094;52.130;5.598;2024-02-23T18:03:55;6.40;1.00
23717;DHT22;22094;52.130;5.598;2024-02-23T18:06:21;6.40;1.00
23717;DHT22;22094;52.130;5.598;2024-02-23T18:08:48;6.20;1.00
23717;DHT22;22094;52.130;5.598;2024-02-23T18:11:14;6.00;99.90
23717;DHT22;22094;52.130;5.598;2024-02-23T18:13:40;6.20;99.90
23717;DHT22;22094;52.130;5.598;2024-02-23T18:16:07;6.30;1.00
23717;DHT22;22094;52.130;5.598;2024-02-23T18:18:36;6.40;9.80
23717;DHT22;22094;52.130;5.598;2024-02-23T18:21:02;6.50;99.90
23717;DHT22;22094;52.130;5.598;2024-02-23T18:23:28;6.40;1.00
23717;DHT22;22094;52.130;5.598;2024-02-23T18:25:53;6.30;99.90
23717;DHT22;22094;52.130;5.598;2024-02-23T18:28:19;6.10;1.00
23717;DHT22;22094;52.130;5.598;2024-02-23T18:30:44;5.90;99.90
23717;DHT22;22094;52.130;5.598;2024-02-23T18:33:10;5.80;1.00
23717;DHT22;22094;52.130;5.598;2024-02-23T18:35:35;5.70;99.90
23717;DHT22;22094;52.130;5.598;2024-02-23T18:38:01;5.60;1.00
23717;DHT22;22094;52.130;5.598;2024-02-23T18:40:26;5.50;1.00
23717;DHT22;22094;52.130;5.598;2024-02-23T18:42:52;5.40;1.00
23717;DHT22;22094;52.130;5.598;2024-02-23T18:45:18;5.40;1.00
23717;DHT22;22094;52.130;5.598;2024-02-23T18:47:46;5.50;1.00
23717;DHT22;22094;52.130;5.598;2024-02-23T18:50:11;5.40;99.90
23717;DHT22;22094;52.130;5.598;2024-02-23T18:52:38;5.40;1.00
23717;DHT22;22094;52.130;5.598;2024-02-23T18:55:04;5.30;1.00
23717;DHT22;22094;52.130;5.598;2024-02-23T18:57:32;5.30;1.00
23717;DHT22;22094;52.130;5.598;2024-02-23T18:59:57;5.30;99.90
23717;DHT22;22094;52.130;5.598;2024-02-23T19:02:23;5.30;99.90
23717;DHT22;22094;52.130;5.598;2024-02-23T19:04:48;5.30;1.00
23717;DHT22;22094;52.130;5.598;2024-02-23T19:07:14;5.30;1.00
23717;DHT22;22094;52.130;5.598;2024-02-23T19:09:40;5.20;1.00
23717;DHT22;22094;52.130;5.598;2024-02-23T19:12:07;5.20;1.00
23717;DHT22;22094;52.130;5.598;2024-02-23T19:14:34;5.20;1.00
23717;DHT22;22094;52.130;5.598;2024-02-23T19:16:59;6.00;1.00
23717;DHT22;22094;52.130;5.598;2024-02-23T19:19:25;5.20;1.00
23717;DHT22;22094;52.130;5.598;2024-02-23T19:21:51;5.10;1.00
23717;DHT22;22094;52.130;5.598;2024-02-23T19:24:17;5.20;1.00
23717;DHT22;22094;52.130;5.598;2024-02-23T19:26:42;5.20;1.00
23717;DHT22;22094;52.130;5.598;2024-02-23T19:29:09;5.20;1.00
23717;DHT22;22094;52.130;5.598;2024-02-23T19:31:34;5.10;1.00
23717;DHT22;22094;52.130;5.598;2024-02-23T19:34:01;5.10;1.00
23717;DHT22;22094;52.130;5.598;2024-02-23T19:36:29;5.10;1.00
23717;DHT22;22094;52.130;5.598;2024-02-23T19:38:55;5.10;1.00
23717;DHT22;22094;52.130;5.598;2024-02-23T19:41:20;5.10;1.00
23717;DHT22;22094;52.130;5.598;2024-02-23T19:43:46;5.20;1.00
23717;DHT22;22094;52.130;5.598;2024-02-23T19:46:13;5.20;1.00
23717;DHT22;22094;52.130;5.598;2024-02-23T19:48:43;5.20;1.00
23717;DHT22;22094;52.130;5.598;2024-02-23T19:51:09;5.20;1.00
23717;DHT22;22094;52.130;5.598;2024-02-23T19:53:35;5.30;1.00
23717;DHT22;22094;52.130;5.598;2024-02-23T19:56:00;6.00;1.00
23717;DHT22;22094;52.130;5.598;2024-02-23T19:58:26;5.30;1.00
23717;DHT22;22094;52.130;5.598;2024-02-23T20:00:52;5.40;1.00
23717;DHT22;22094;52.130;5.598;2024-02-23T20:03:17;5.30;1.00
23717;DHT22;22094;52.130;5.598;2024-02-23T20:05:43;5.40;1.00
23717;DHT22;22094;52.130;5.598;2024-02-23T20:08:08;5.30;1.00
23717;DHT22;22094;52.130;5.598;2024-02-23T20:10:34;5.30;1.00
23717;DHT22;22094;52.130;5.598;2024-02-23T20:13:00;5.30;1.00
23717;DHT22;22094;52.130;5.598;2024-02-23T20:15:25;5.30;1.00
23717;DHT22;22094;52.130;5.598;2024-02-23T20:17:51;5.20;1.00
23717;DHT22;22094;52.130;5.598;2024-02-23T20:20:17;5.20;1.00
23717;DHT22;22094;52.130;5.598;2024-02-23T20:22:43;5.10;1.00
23717;DHT22;22094;52.130;5.598;2024-02-23T20:25:09;5.40;1.00
23717;DHT22;22094;52.130;5.598;2024-02-23T20:27:34;5.10;1.00
23717;DHT22;22094;52.130;5.598;2024-02-23T20:30:02;5.10;1.00
23717;DHT22;22094;52.130;5.598;2024-02-23T20:32:28;5.10;1.00
23717;DHT22;22094;52.130;5.598;2024-02-23T20:34:53;5.10;1.00
23717;DHT22;22094;52.130;5.598;2024-02-23T20:37:19;5.20;1.00
23717;DHT22;22094;52.130;5.598;2024-02-23T20:39:44;5.20;1.00
23717;DHT22;22094;52.130;5.598;2024-02-23T20:42:10;5.20;1.00
23717;DHT22;22094;52.130;5.598;2024-02-23T20:44:35;5.20;1.00
23717;DHT22;22094;52.130;5.598;2024-02-23T20:47:02;5.20;1.00
23717;DHT22;22094;52.130;5.598;2024-02-23T20:49:28;5.20;1.00
23717;DHT22;22094;52.130;5.598;2024-02-23T20:51:56;5.30;1.00
23717;DHT22;22094;52.130;5.598;2024-02-23T20:54:21;5.30;1.00
23717;DHT22;22094;52.130;5.598;2024-02-23T20:56:47;4.90;1.00
23717;DHT22;22094;52.130;5.598;2024-02-23T20:59:13;5.50;1.00
23717;DHT22;22094;52.130;5.598;2024-02-23T21:01:39;5.80;1.00
23717;DHT22;22094;52.130;5.598;2024-02-23T21:04:05;5.70;99.90
23717;DHT22;22094;52.130;5.598;2024-02-23T21:06:31;6.40;1.00
23717;DHT22;22094;52.130;5.598;2024-02-23T21:08:58;6.00;1.00
23717;DHT22;22094;52.130;5.598;2024-02-23T21:11:23;6.10;1.00
23717;DHT22;22094;52.130;5.598;2024-02-23T21:13:50;6.60;1.00
23717;DHT22;22094;52.130;5.598;2024-02-23T21:16:16;6.10;99.90
23717;DHT22;22094;52.130;5.598;2024-02-23T21:18:41;6.20;1.00
23717;DHT22;22094;52.130;5.598;2024-02-23T21:21:07;6.90;99.90
23717;DHT22;22094;52.130;5.598;2024-02-23T21:23:33;5.90;1.00
23717;DHT22;22094;52.130;5.598;2024-02-23T21:25:59;6.10;1.00
23717;DHT22;22094;52.130;5.598;2024-02-23T21:28:25;6.40;99.90
23717;DHT22;22094;52.130;5.598;2024-02-23T21:30:51;5.90;1.00
23717;DHT22;22094;52.130;5.598;2024-02-23T21:33:22;6.70;1.00
23717;DHT22;22094;52.130;5.598;2024-02-23T21:35:49;6.00;99.90
23717;DHT22;22094;52.130;5.598;2024-02-23T21:38:15;6.60;23.80
23717;DHT22;22094;52.130;5.598;2024-02-23T21:40:41;6.50;99.90
23717;DHT22;22094;52.130;5.598;2024-02-23T21:43:06;5.70;1.00
23717;DHT22;22094;52.130;5.598;2024-02-23T21:45:32;5.70;99.90
23717;DHT22;22094;52.130;5.598;2024-02-23T21:47:58;5.70;99.90
23717;DHT22;22094;52.130;5.598;2024-02-23T21:50:24;5.80;1.00
23717;DHT22;22094;52.130;5.598;2024-02-23T21:52:50;6.70;1.00
23717;DHT22;22094;52.130;5.598;2024-02-23T21:55:15;5.90;1.00
23717;DHT22;22094;52.130;5.598;2024-02-23T21:57:41;6.00;1.00
23717;DHT22;22094;52.130;5.598;2024-02-23T22:00:07;7.00;99.90
23717;DHT22;22094;52.130;5.598;2024-02-23T22:02:33;6.20;1.00
23717;DHT22;22094;52.130;5.598;2024-02-23T22:04:58;7.30;1.00
23717;DHT22;22094;52.130;5.598;2024-02-23T22:07:24;6.80;1.00
23717;DHT22;22094;52.130;5.598;2024-02-23T22:09:50;7.10;99.90
23717;DHT22;22094;52.130;5.598;2024-02-23T22:12:23;6.80;99.90
23717;DHT22;22094;52.130;5.598;2024-02-23T22:14:49;6.60;1.00
23717;DHT22;22094;52.130;5.598;2024-02-23T22:17:14;6.90;1.00
23717;DHT22;22094;52.130;5.598;2024-02-23T22:19:40;6.50;1.00
23717;DHT22;22094;52.130;5.598;2024-02-23T22:22:06;6.60;1.00
23717;DHT22;22094;52.130;5.598;2024-02-23T22:24:31;6.10;99.90
23717;DHT22;22094;52.130;5.598;2024-02-23T22:26:57;6.20;1.00
23717;DHT22;22094;52.130;5.598;2024-02-23T22:29:22;6.20;1.00
23717;DHT22;22094;52.130;5.598;2024-02-23T22:31:48;6.30;99.90
23717;DHT22;22094;52.130;5.598;2024-02-23T22:34:14;5.30;1.00
23717;DHT22;22094;52.130;5.598;2024-02-23T22:36:39;5.40;1.00
23717;DHT22;22094;52.130;5.598;2024-02-23T22:39:05;5.40;1.00
23717;DHT22;22094;52.130;5.598;2024-02-23T22:41:31;6.20;1.00
23717;DHT22;22094;52.130;5.598;2024-02-23T22:43:58;6.00;1.00
23717;DHT22;22094;52.130;5.598;2024-02-23T22:46:26;6.10;1.00
23717;DHT22;22094;52.130;5.598;2024-02-23T22:48:52;6.00;1.00
23717;DHT22;22094;52.130;5.598;2024-02-23T22:51:17;6.00;1.00
23717;DHT22;22094;52.130;5.598;2024-02-23T22:53:43;5.70;1.00
23717;DHT22;22094;52.130;5.598;2024-02-23T22:56:09;5.20;1.00
23717;DHT22;22094;52.130;5.598;2024-02-23T22:58:34;5.50;1.00
23717;DHT22;22094;52.130;5.598;2024-02-23T23:01:01;5.50;1.00